sensor_id;sensor_type;location;lat;lon;timestamp;P1;durP1;ratioP1;P2;durP2;ratioP2
76194;SDS011;64964;48.694;21.206;2023-07-02T00:01:02;14.15;;;10.98;;
76194;SDS011;64964;48.694;21.206;2023-07-02T00:03:28;12.13;;;10.13;;
76194;SDS011;64964;48.694;21.206;2023-07-02T00:05:53;11.27;;;10.17;;
76194;SDS011;64964;48.694;21.206;2023-07-02T00:08:21;11.60;;;10.50;;
76194;SDS011;64964;48.694;21.206;2023-07-02T00:10:47;11.98;;;10.77;;
76194;SDS011;64964;48.694;21.206;2023-07-02T00:13:12;11.80;;;10.70;;
76194;SDS011;64964;48.694;21.206;2023-07-02T00:15:39;11.43;;;10.32;;
76194;SDS011;64964;48.694;21.206;2023-07-02T00:18:04;11.77;;;10.67;;
76194;SDS011;64964;48.694;21.206;2023-07-02T00:20:29;14.27;;;10.77;;
76194;SDS011;64964;48.694;21.206;2023-07-02T00:22:59;11.65;;;10.55;;
76194;SDS011;64964;48.694;21.206;2023-07-02T00:25:25;10.77;;;9.80;;
76194;SDS011;64964;48.694;21.206;2023-07-02T00:27:50;11.87;;;9.90;;
76194;SDS011;64964;48.694;21.206;2023-07-02T00:30:16;11.80;;;10.23;;
76194;SDS011;64964;48.694;21.206;2023-07-02T00:32:41;12.43;;;10.03;;
76194;SDS011;64964;48.694;21.206;2023-07-02T00:35:07;12.03;;;9.77;;
76194;SDS011;64964;48.694;21.206;2023-07-02T00:37:32;10.93;;;9.90;;
76194;SDS011;64964;48.694;21.206;2023-07-02T00:39:57;10.47;;;9.43;;
76194;SDS011;64964;48.694;21.206;2023-07-02T00:42:23;11.07;;;9.97;;
76194;SDS011;64964;48.694;21.206;2023-07-02T00:44:48;10.52;;;9.63;;
76194;SDS011;64964;48.694;21.206;2023-07-02T00:47:17;10.83;;;9.73;;
76194;SDS011;64964;48.694;21.206;2023-07-02T00:49:42;10.70;;;9.63;;
76194;SDS011;64964;48.694;21.206;2023-07-02T00:52:08;10.25;;;9.25;;
76194;SDS011;64964;48.694;21.206;2023-07-02T00:54:34;11.90;;;10.67;;
76194;SDS011;64964;48.694;21.206;2023-07-02T00:57:00;13.15;;;10.05;;
76194;SDS011;64964;48.694;21.206;2023-07-02T00:59:29;11.27;;;10.20;;
76194;SDS011;64964;48.694;21.206;2023-07-02T01:01:55;11.00;;;10.00;;
76194;SDS011;64964;48.694;21.206;2023-07-02T01:04:22;11.32;;;10.23;;
76194;SDS011;64964;48.694;21.206;2023-07-02T01:06:52;11.70;;;10.50;;
76194;SDS011;64964;48.694;21.206;2023-07-02T01:09:22;12.85;;;10.27;;
76194;SDS011;64964;48.694;21.206;2023-07-02T01:11:51;14.60;;;10.00;;
76194;SDS011;64964;48.694;21.206;2023-07-02T01:14:25;11.87;;;10.67;;
76194;SDS011;64964;48.694;21.206;2023-07-02T01:16:52;11.93;;;10.60;;
76194;SDS011;64964;48.694;21.206;2023-07-02T01:22:18;13.45;;;10.02;;
76194;SDS011;64964;48.694;21.206;2023-07-02T01:24:45;11.23;;;10.13;;
76194;SDS011;64964;48.694;21.206;2023-07-02T01:27:14;11.90;;;9.77;;
76194;SDS011;64964;48.694;21.206;2023-07-02T01:29:40;11.47;;;9.93;;
76194;SDS011;64964;48.694;21.206;2023-07-02T01:32:06;10.48;;;9.38;;
76194;SDS011;64964;48.694;21.206;2023-07-02T01:34:32;12.05;;;10.25;;
76194;SDS011;64964;48.694;21.206;2023-07-02T01:36:57;11.00;;;9.90;;
76194;SDS011;64964;48.694;21.206;2023-07-02T01:39:23;11.37;;;9.90;;
76194;SDS011;64964;48.694;21.206;2023-07-02T01:41:52;20.92;;;10.77;;
76194;SDS011;64964;48.694;21.206;2023-07-02T01:44:18;11.20;;;10.10;;
76194;SDS011;64964;48.694;21.206;2023-07-02T01:46:44;12.93;;;10.90;;
76194;SDS011;64964;48.694;21.206;2023-07-02T01:49:13;12.88;;;10.45;;
76194;SDS011;64964;48.694;21.206;2023-07-02T01:51:51;14.05;;;10.60;;
76194;SDS011;64964;48.694;21.206;2023-07-02T01:54:18;11.20;;;10.05;;
76194;SDS011;64964;48.694;21.206;2023-07-02T01:56:44;11.85;;;10.68;;
76194;SDS011;64964;48.694;21.206;2023-07-02T01:59:09;12.67;;;10.37;;
76194;SDS011;64964;48.694;21.206;2023-07-02T02:01:35;11.07;;;9.97;;
76194;SDS011;64964;48.694;21.206;2023-07-02T02:04:00;12.57;;;10.70;;
76194;SDS011;64964;48.694;21.206;2023-07-02T02:06:25;12.30;;;10.90;;
76194;SDS011;64964;48.694;21.206;2023-07-02T02:08:51;12.60;;;10.27;;
76194;SDS011;64964;48.694;21.206;2023-07-02T02:11:16;11.90;;;10.80;;
76194;SDS011;64964;48.694;21.206;2023-07-02T02:13:42;12.27;;;10.97;;
76194;SDS011;64964;48.694;21.206;2023-07-02T02:16:07;16.95;;;10.93;;
76194;SDS011;64964;48.694;21.206;2023-07-02T02:18:32;12.23;;;10.33;;
76194;SDS011;64964;48.694;21.206;2023-07-02T02:20:58;11.00;;;9.90;;
76194;SDS011;64964;48.694;21.206;2023-07-02T02:23:23;11.77;;;10.57;;
76194;SDS011;64964;48.694;21.206;2023-07-02T02:25:49;11.73;;;10.63;;
76194;SDS011;64964;48.694;21.206;2023-07-02T02:28:14;11.60;;;10.50;;
76194;SDS011;64964;48.694;21.206;2023-07-02T02:30:39;12.00;;;10.90;;
76194;SDS011;64964;48.694;21.206;2023-07-02T02:33:05;11.67;;;10.57;;
76194;SDS011;64964;48.694;21.206;2023-07-02T02:35:30;13.00;;;10.23;;
76194;SDS011;64964;48.694;21.206;2023-07-02T02:37:55;11.88;;;10.55;;
76194;SDS011;64964;48.694;21.206;2023-07-02T02:40:21;11.53;;;10.43;;
76194;SDS011;64964;48.694;21.206;2023-07-02T02:42:46;11.50;;;10.40;;
76194;SDS011;64964;48.694;21.206;2023-07-02T02:45:11;11.80;;;10.70;;
76194;SDS011;64964;48.694;21.206;2023-07-02T02:47:37;12.38;;;11.18;;
76194;SDS011;64964;48.694;21.206;2023-07-02T02:50:02;12.43;;;11.23;;
76194;SDS011;64964;48.694;21.206;2023-07-02T02:52:28;13.70;;;10.97;;
76194;SDS011;64964;48.694;21.206;2023-07-02T02:54:53;11.60;;;10.40;;
76194;SDS011;64964;48.694;21.206;2023-07-02T02:57:19;12.87;;;11.57;;
76194;SDS011;64964;48.694;21.206;2023-07-02T02:59:44;11.70;;;10.60;;
76194;SDS011;64964;48.694;21.206;2023-07-02T03:02:09;13.30;;;11.40;;
76194;SDS011;64964;48.694;21.206;2023-07-02T03:04:35;12.40;;;11.20;;
76194;SDS011;64964;48.694;21.206;2023-07-02T03:07:00;13.20;;;10.93;;
76194;SDS011;64964;48.694;21.206;2023-07-02T03:09:25;12.10;;;10.90;;
76194;SDS011;64964;48.694;21.206;2023-07-02T03:11:51;12.13;;;11.03;;
76194;SDS011;64964;48.694;21.206;2023-07-02T03:14:16;12.90;;;11.60;;
76194;SDS011;64964;48.694;21.206;2023-07-02T03:16:42;12.30;;;11.10;;
76194;SDS011;64964;48.694;21.206;2023-07-02T03:19:10;12.05;;;10.95;;
76194;SDS011;64964;48.694;21.206;2023-07-02T03:21:35;13.00;;;11.70;;
76194;SDS011;64964;48.694;21.206;2023-07-02T03:24:00;12.47;;;11.27;;
76194;SDS011;64964;48.694;21.206;2023-07-02T03:26:27;12.40;;;11.20;;
76194;SDS011;64964;48.694;21.206;2023-07-02T03:28:52;12.27;;;11.18;;
76194;SDS011;64964;48.694;21.206;2023-07-02T03:31:17;12.23;;;11.00;;
76194;SDS011;64964;48.694;21.206;2023-07-02T03:33:43;13.00;;;10.67;;
76194;SDS011;64964;48.694;21.206;2023-07-02T03:36:08;12.20;;;11.00;;
76194;SDS011;64964;48.694;21.206;2023-07-02T03:38:33;12.67;;;11.47;;
76194;SDS011;64964;48.694;21.206;2023-07-02T03:40:59;13.68;;;12.02;;
76194;SDS011;64964;48.694;21.206;2023-07-02T03:43:24;12.73;;;11.50;;
76194;SDS011;64964;48.694;21.206;2023-07-02T03:45:51;14.30;;;11.38;;
76194;SDS011;64964;48.694;21.206;2023-07-02T03:48:17;12.23;;;11.10;;
76194;SDS011;64964;48.694;21.206;2023-07-02T03:50:42;12.73;;;11.27;;
76194;SDS011;64964;48.694;21.206;2023-07-02T03:53:08;12.13;;;10.93;;
76194;SDS011;64964;48.694;21.206;2023-07-02T03:55:33;13.40;;;11.37;;
76194;SDS011;64964;48.694;21.206;2023-07-02T03:57:59;13.60;;;11.17;;
76194;SDS011;64964;48.694;21.206;2023-07-02T04:00:24;12.30;;;11.10;;
76194;SDS011;64964;48.694;21.206;2023-07-02T04:02:49;12.27;;;11.17;;
76194;SDS011;64964;48.694;21.206;2023-07-02T04:05:15;12.07;;;10.90;;
76194;SDS011;64964;48.694;21.206;2023-07-02T04:07:40;12.83;;;11.57;;
76194;SDS011;64964;48.694;21.206;2023-07-02T04:10:06;11.80;;;10.73;;
76194;SDS011;64964;48.694;21.206;2023-07-02T04:12:32;12.37;;;11.10;;
76194;SDS011;64964;48.694;21.206;2023-07-02T04:14:57;12.35;;;11.02;;
76194;SDS011;64964;48.694;21.206;2023-07-02T04:17:22;11.97;;;10.87;;
76194;SDS011;64964;48.694;21.206;2023-07-02T04:19:48;11.90;;;10.70;;
76194;SDS011;64964;48.694;21.206;2023-07-02T04:22:14;12.18;;;10.95;;
76194;SDS011;64964;48.694;21.206;2023-07-02T04:24:39;12.07;;;10.60;;
76194;SDS011;64964;48.694;21.206;2023-07-02T04:27:05;11.57;;;10.47;;
76194;SDS011;64964;48.694;21.206;2023-07-02T04:29:30;11.77;;;10.65;;
76194;SDS011;64964;48.694;21.206;2023-07-02T04:31:56;11.60;;;10.43;;
76194;SDS011;64964;48.694;21.206;2023-07-02T04:34:21;12.73;;;11.45;;
76194;SDS011;64964;48.694;21.206;2023-07-02T04:36:46;12.80;;;11.33;;
76194;SDS011;64964;48.694;21.206;2023-07-02T04:39:12;11.80;;;10.60;;
76194;SDS011;64964;48.694;21.206;2023-07-02T04:41:37;12.70;;;11.40;;
76194;SDS011;64964;48.694;21.206;2023-07-02T04:44:03;12.20;;;11.00;;
76194;SDS011;64964;48.694;21.206;2023-07-02T04:46:28;13.67;;;10.70;;
76194;SDS011;64964;48.694;21.206;2023-07-02T04:48:54;11.95;;;10.75;;
76194;SDS011;64964;48.694;21.206;2023-07-02T04:51:20;12.00;;;10.80;;
76194;SDS011;64964;48.694;21.206;2023-07-02T04:53:45;13.20;;;10.80;;
76194;SDS011;64964;48.694;21.206;2023-07-02T04:56:11;11.20;;;10.10;;
76194;SDS011;64964;48.694;21.206;2023-07-02T04:58:36;10.47;;;9.47;;
76194;SDS011;64964;48.694;21.206;2023-07-02T05:01:01;11.20;;;10.10;;
76194;SDS011;64964;48.694;21.206;2023-07-02T05:03:27;11.25;;;9.75;;
76194;SDS011;64964;48.694;21.206;2023-07-02T05:05:52;10.63;;;9.50;;
76194;SDS011;64964;48.694;21.206;2023-07-02T05:08:18;11.27;;;10.07;;
76194;SDS011;64964;48.694;21.206;2023-07-02T05:10:43;13.30;;;9.53;;
76194;SDS011;64964;48.694;21.206;2023-07-02T05:13:08;9.80;;;8.80;;
76194;SDS011;64964;48.694;21.206;2023-07-02T05:15:34;9.20;;;8.30;;
76194;SDS011;64964;48.694;21.206;2023-07-02T05:17:59;10.70;;;8.60;;
76194;SDS011;64964;48.694;21.206;2023-07-02T05:20:25;9.60;;;8.37;;
76194;SDS011;64964;48.694;21.206;2023-07-02T05:22:50;10.70;;;8.45;;
76194;SDS011;64964;48.694;21.206;2023-07-02T05:25:16;9.77;;;8.43;;
76194;SDS011;64964;48.694;21.206;2023-07-02T05:27:41;10.07;;;8.53;;
76194;SDS011;64964;48.694;21.206;2023-07-02T05:30:06;9.43;;;8.05;;
76194;SDS011;64964;48.694;21.206;2023-07-02T05:32:33;9.33;;;8.00;;
76194;SDS011;64964;48.694;21.206;2023-07-02T05:34:59;9.88;;;8.00;;
76194;SDS011;64964;48.694;21.206;2023-07-02T05:37:24;10.27;;;8.17;;
76194;SDS011;64964;48.694;21.206;2023-07-02T05:39:50;8.70;;;7.80;;
76194;SDS011;64964;48.694;21.206;2023-07-02T05:42:15;10.80;;;8.00;;
76194;SDS011;64964;48.694;21.206;2023-07-02T05:44:40;10.20;;;7.60;;
76194;SDS011;64964;48.694;21.206;2023-07-02T05:47:06;8.17;;;7.00;;
76194;SDS011;64964;48.694;21.206;2023-07-02T05:49:31;11.15;;;8.00;;
76194;SDS011;64964;48.694;21.206;2023-07-02T05:51:57;9.63;;;7.80;;
76194;SDS011;64964;48.694;21.206;2023-07-02T05:54:22;8.47;;;7.00;;
76194;SDS011;64964;48.694;21.206;2023-07-02T05:56:47;8.60;;;6.60;;
76194;SDS011;64964;48.694;21.206;2023-07-02T05:59:13;9.90;;;6.93;;
76194;SDS011;64964;48.694;21.206;2023-07-02T06:01:42;10.38;;;7.45;;
76194;SDS011;64964;48.694;21.206;2023-07-02T06:04:08;8.55;;;6.57;;
76194;SDS011;64964;48.694;21.206;2023-07-02T06:06:33;8.60;;;7.00;;
76194;SDS011;64964;48.694;21.206;2023-07-02T06:08:58;10.23;;;6.90;;
76194;SDS011;64964;48.694;21.206;2023-07-02T06:11:24;8.87;;;6.90;;
76194;SDS011;64964;48.694;21.206;2023-07-02T06:13:49;10.40;;;7.30;;
76194;SDS011;64964;48.694;21.206;2023-07-02T06:16:15;9.53;;;6.97;;
76194;SDS011;64964;48.694;21.206;2023-07-02T06:18:40;9.17;;;6.97;;
76194;SDS011;64964;48.694;21.206;2023-07-02T06:21:06;8.88;;;7.03;;
76194;SDS011;64964;48.694;21.206;2023-07-02T06:23:44;9.63;;;7.00;;
76194;SDS011;64964;48.694;21.206;2023-07-02T06:26:10;8.63;;;6.88;;
76194;SDS011;64964;48.694;21.206;2023-07-02T06:28:35;9.07;;;7.15;;
76194;SDS011;64964;48.694;21.206;2023-07-02T06:31:01;9.60;;;7.60;;
76194;SDS011;64964;48.694;21.206;2023-07-02T06:33:26;9.90;;;7.03;;
76194;SDS011;64964;48.694;21.206;2023-07-02T06:35:51;10.20;;;7.20;;
76194;SDS011;64964;48.694;21.206;2023-07-02T06:38:17;7.53;;;6.70;;
76194;SDS011;64964;48.694;21.206;2023-07-02T06:40:42;8.87;;;6.50;;
76194;SDS011;64964;48.694;21.206;2023-07-02T06:43:08;9.30;;;6.43;;
76194;SDS011;64964;48.694;21.206;2023-07-02T06:45:33;8.50;;;6.43;;
76194;SDS011;64964;48.694;21.206;2023-07-02T06:47:59;10.07;;;6.83;;
76194;SDS011;64964;48.694;21.206;2023-07-02T06:50:25;9.65;;;6.30;;
76194;SDS011;64964;48.694;21.206;2023-07-02T06:52:50;8.33;;;6.23;;
76194;SDS011;64964;48.694;21.206;2023-07-02T06:55:15;8.27;;;6.10;;
76194;SDS011;64964;48.694;21.206;2023-07-02T06:57:44;7.27;;;6.33;;
76194;SDS011;64964;48.694;21.206;2023-07-02T07:00:13;7.90;;;6.60;;
76194;SDS011;64964;48.694;21.206;2023-07-02T07:02:39;8.68;;;6.75;;
76194;SDS011;64964;48.694;21.206;2023-07-02T07:05:04;7.67;;;6.70;;
76194;SDS011;64964;48.694;21.206;2023-07-02T07:07:30;9.18;;;6.65;;
76194;SDS011;64964;48.694;21.206;2023-07-02T07:09:55;8.60;;;6.73;;
76194;SDS011;64964;48.694;21.206;2023-07-02T07:12:21;9.43;;;6.43;;
76194;SDS011;64964;48.694;21.206;2023-07-02T07:14:46;8.57;;;6.13;;
76194;SDS011;64964;48.694;21.206;2023-07-02T07:17:11;8.50;;;6.30;;
76194;SDS011;64964;48.694;21.206;2023-07-02T07:19:37;7.23;;;6.13;;
76194;SDS011;64964;48.694;21.206;2023-07-02T07:22:02;7.33;;;6.07;;
76194;SDS011;64964;48.694;21.206;2023-07-02T07:24:28;7.80;;;6.38;;
76194;SDS011;64964;48.694;21.206;2023-07-02T07:26:53;9.13;;;7.03;;
76194;SDS011;64964;48.694;21.206;2023-07-02T07:29:18;7.70;;;6.30;;
76194;SDS011;64964;48.694;21.206;2023-07-02T07:31:44;8.80;;;6.23;;
76194;SDS011;64964;48.694;21.206;2023-07-02T07:34:09;7.00;;;5.70;;
76194;SDS011;64964;48.694;21.206;2023-07-02T07:36:34;7.73;;;6.23;;
76194;SDS011;64964;48.694;21.206;2023-07-02T07:39:02;7.97;;;6.07;;
76194;SDS011;64964;48.694;21.206;2023-07-02T07:41:27;8.83;;;6.13;;
76194;SDS011;64964;48.694;21.206;2023-07-02T07:43:53;7.87;;;6.37;;
76194;SDS011;64964;48.694;21.206;2023-07-02T07:46:18;6.90;;;6.03;;
76194;SDS011;64964;48.694;21.206;2023-07-02T07:48:44;8.07;;;6.40;;
76194;SDS011;64964;48.694;21.206;2023-07-02T07:51:09;7.00;;;6.10;;
76194;SDS011;64964;48.694;21.206;2023-07-02T07:53:37;7.67;;;6.10;;
76194;SDS011;64964;48.694;21.206;2023-07-02T07:56:04;7.75;;;6.10;;
76194;SDS011;64964;48.694;21.206;2023-07-02T07:58:29;7.90;;;6.37;;
76194;SDS011;64964;48.694;21.206;2023-07-02T08:00:57;7.13;;;6.05;;
76194;SDS011;64964;48.694;21.206;2023-07-02T08:03:22;8.73;;;6.23;;
76194;SDS011;64964;48.694;21.206;2023-07-02T08:05:47;8.45;;;6.30;;
76194;SDS011;64964;48.694;21.206;2023-07-02T08:08:13;7.60;;;6.40;;
76194;SDS011;64964;48.694;21.206;2023-07-02T08:10:38;8.20;;;6.50;;
76194;SDS011;64964;48.694;21.206;2023-07-02T08:13:03;8.83;;;6.80;;
76194;SDS011;64964;48.694;21.206;2023-07-02T08:15:29;9.33;;;6.50;;
76194;SDS011;64964;48.694;21.206;2023-07-02T08:17:54;8.73;;;6.57;;
76194;SDS011;64964;48.694;21.206;2023-07-02T08:20:22;6.83;;;6.00;;
76194;SDS011;64964;48.694;21.206;2023-07-02T08:22:48;7.80;;;6.93;;
76194;SDS011;64964;48.694;21.206;2023-07-02T08:25:16;6.95;;;6.25;;
76194;SDS011;64964;48.694;21.206;2023-07-02T08:27:43;8.73;;;6.22;;
76194;SDS011;64964;48.694;21.206;2023-07-02T08:30:08;9.50;;;6.38;;
76194;SDS011;64964;48.694;21.206;2023-07-02T08:32:34;7.20;;;6.00;;
76194;SDS011;64964;48.694;21.206;2023-07-02T08:34:59;7.70;;;6.20;;
76194;SDS011;64964;48.694;21.206;2023-07-02T08:37:25;7.97;;;6.50;;
76194;SDS011;64964;48.694;21.206;2023-07-02T08:39:50;7.63;;;6.13;;
76194;SDS011;64964;48.694;21.206;2023-07-02T08:42:15;8.63;;;6.30;;
76194;SDS011;64964;48.694;21.206;2023-07-02T08:44:41;7.75;;;6.07;;
76194;SDS011;64964;48.694;21.206;2023-07-02T08:47:10;10.30;;;6.03;;
76194;SDS011;64964;48.694;21.206;2023-07-02T08:49:35;9.47;;;7.23;;
76194;SDS011;64964;48.694;21.206;2023-07-02T08:52:01;7.93;;;6.43;;
76194;SDS011;64964;48.694;21.206;2023-07-02T08:54:27;9.18;;;6.47;;
76194;SDS011;64964;48.694;21.206;2023-07-02T08:56:52;9.10;;;6.97;;
76194;SDS011;64964;48.694;21.206;2023-07-02T08:59:17;8.90;;;6.83;;
76194;SDS011;64964;48.694;21.206;2023-07-02T09:01:50;7.40;;;6.37;;
76194;SDS011;64964;48.694;21.206;2023-07-02T09:04:24;15.65;;;7.40;;
76194;SDS011;64964;48.694;21.206;2023-07-02T09:07:07;11.02;;;6.72;;
76194;SDS011;64964;48.694;21.206;2023-07-02T09:09:45;8.50;;;6.70;;
76194;SDS011;64964;48.694;21.206;2023-07-02T09:12:24;7.53;;;6.53;;
76194;SDS011;64964;48.694;21.206;2023-07-02T09:14:57;9.65;;;6.50;;
